createdAt,value
2019-02-06T00:02:19.573Z,100964.14
2019-02-06T00:05:14.315Z,100961.49
2019-02-06T00:07:55.792Z,100959.71
2019-02-06T00:10:23.567Z,100952.31
2019-02-06T00:13:06.980Z,100952.31
2019-02-06T00:18:14.678Z,100955.23
2019-02-06T00:20:42.393Z,100955.23
2019-02-06T00:23:22.210Z,100951.55
2019-02-06T00:25:39.400Z,100955.81
2019-02-06T00:28:25.919Z,100950.66
2019-02-06T00:31:12.401Z,100946.41
2019-02-06T00:39:33.319Z,100939.69
2019-02-06T00:42:19.782Z,100943.14
2019-02-06T00:44:47.475Z,100933.91
2019-02-06T00:50:21.960Z,100922.80
2019-02-06T00:53:08.685Z,100922.55
2019-02-06T00:55:37.998Z,100922.55
2019-02-06T01:03:22.918Z,100897.56
2019-02-06T01:06:09.607Z,100906.69
2019-02-06T01:08:37.406Z,100906.69
2019-02-06T01:11:07.097Z,100900.08
2019-02-06T01:13:53.803Z,100899.20
2019-02-06T01:16:55.415Z,100899.20
2019-02-06T01:19:11.351Z,100902.30
2019-02-06T01:21:57.863Z,100900.83
2019-02-06T01:24:44.283Z,100911.59
2019-02-06T01:27:32.684Z,100907.21
2019-02-06T01:30:19.190Z,100910.39
2019-02-06T01:33:05.984Z,100904.85
2019-02-06T01:35:52.409Z,100901.05
2019-02-06T01:38:38.910Z,100895.44
2019-02-06T01:41:25.363Z,100897.98
2019-02-06T01:46:44.457Z,100899.27
2019-02-06T01:49:31.260Z,100905.91
2019-02-06T01:52:19.315Z,100903.03
2019-02-06T01:54:47.119Z,100903.03
2019-02-06T01:57:33.638Z,100900.98
2019-02-06T02:00:01.387Z,100899.02
2019-02-06T02:02:29.060Z,100904.05
2019-02-06T02:05:15.546Z,100889.81
2019-02-06T02:07:43.327Z,100900.00
2019-02-06T02:10:13.304Z,100900.00
2019-02-06T02:12:59.814Z,100902.30
2019-02-06T02:15:46.233Z,100894.63
2019-02-06T02:18:28.000Z,100894.63
2019-02-06T02:21:01.976Z,100874.84
2019-02-06T02:23:32.226Z,100874.84
2019-02-06T02:26:18.652Z,100874.37
2019-02-06T02:28:47.144Z,100874.37
2019-02-06T02:34:16.390Z,100860.55
2019-02-06T02:36:51.350Z,100854.24
2019-02-06T02:39:37.866Z,100847.10
2019-02-06T02:42:24.579Z,100836.86
2019-02-06T02:44:52.229Z,100836.86
2019-02-06T02:47:20.045Z,100836.77
2019-02-06T02:49:47.812Z,100827.04
2019-02-06T02:52:17.212Z,100820.30
2019-02-06T02:55:06.275Z,100819.60
2019-02-06T02:57:53.055Z,100815.48
2019-02-06T03:00:41.128Z,100803.59
2019-02-06T03:08:54.274Z,100799.87
2019-02-06T03:11:21.880Z,100798.11
2019-02-06T03:14:08.398Z,100787.53
2019-02-06T03:16:54.836Z,100788.89
2019-02-06T03:19:41.797Z,100779.69
2019-02-06T03:24:59.814Z,100767.72
2019-02-06T03:27:47.931Z,100762.58
2019-02-06T03:30:17.529Z,100762.58
2019-02-06T03:33:05.547Z,100757.31
2019-02-06T03:35:52.340Z,100757.84
2019-02-06T03:38:21.830Z,100757.84
2019-02-06T03:41:08.612Z,100754.91
2019-02-06T03:43:55.081Z,100754.51
2019-02-06T03:46:24.543Z,100754.51
2019-02-06T03:48:54.242Z,100755.13
2019-02-06T03:51:42.322Z,100747.53
2019-02-06T03:56:43.250Z,100744.59
2019-02-06T03:59:13.130Z,100744.59
2019-02-06T04:01:59.646Z,100741.22
2019-02-06T04:04:46.118Z,100738.02
2019-02-06T04:07:13.845Z,100738.02
2019-02-06T04:09:43.322Z,100737.09
2019-02-06T04:12:13.139Z,100739.69
2019-02-06T04:14:59.671Z,100733.06
2019-02-06T04:17:27.309Z,100733.06
2019-02-06T04:19:57.113Z,100732.93
2019-02-06T04:22:43.655Z,100725.91
2019-02-06T04:25:30.141Z,100723.28
2019-02-06T04:27:57.894Z,100723.28
2019-02-06T04:30:46.068Z,100722.75
2019-02-06T04:33:13.820Z,100722.75
2019-02-06T04:36:13.773Z,100718.41
2019-02-06T04:38:50.076Z,100709.25
2019-02-06T04:41:36.567Z,100714.07
2019-02-06T04:44:23.043Z,100700.78
2019-02-06T04:47:09.828Z,100702.32
2019-02-06T04:49:39.559Z,100702.32
2019-02-06T04:52:27.720Z,100699.07
2019-02-06T04:55:14.163Z,100695.73
2019-02-06T04:58:00.909Z,100696.47
2019-02-06T05:00:47.343Z,100689.61
2019-02-06T05:03:34.120Z,100691.72
2019-02-06T05:06:03.893Z,100691.72
2019-02-06T05:08:31.508Z,100678.58
2019-02-06T05:10:59.191Z,100671.84
2019-02-06T05:13:26.972Z,100668.16
2019-02-06T05:16:13.502Z,100662.35
2019-02-06T05:19:00.421Z,100658.36
2019-02-06T05:21:29.738Z,100658.36
2019-02-06T05:24:03.809Z,100660.75
2019-02-06T05:26:44.701Z,100664.11
2019-02-06T05:29:02.507Z,100676.22
2019-02-06T05:31:50.620Z,100676.22
2019-02-06T05:34:18.513Z,100672.27
2019-02-06T05:37:04.998Z,100663.58
2019-02-06T05:39:32.687Z,100665.88
2019-02-06T05:42:20.818Z,100665.88
2019-02-06T05:47:53.713Z,100656.86
2019-02-06T05:50:21.360Z,100656.86
2019-02-06T05:53:09.506Z,100651.09
2019-02-06T05:55:37.178Z,100654.22
2019-02-06T05:58:23.700Z,100653.58
2019-02-06T06:04:02.103Z,100637.88
2019-02-06T06:06:17.292Z,100639.52
2019-02-06T06:09:03.796Z,100639.52
2019-02-06T06:11:31.717Z,100637.65
2019-02-06T06:14:19.919Z,100631.86
2019-02-06T06:16:47.614Z,100634.69
2019-02-06T06:19:35.691Z,100633.37
2019-02-06T06:22:03.301Z,100629.48
2019-02-06T06:24:49.799Z,100627.00
2019-02-06T06:27:17.527Z,100622.75
2019-02-06T06:29:45.295Z,100612.95
2019-02-06T06:32:32.021Z,100612.95
2019-02-06T06:35:01.203Z,100607.20
2019-02-06T06:37:57.713Z,100601.73
2019-02-06T06:40:37.404Z,100601.23
2019-02-06T06:43:23.920Z,100601.23
2019-02-06T06:45:54.243Z,100602.95
2019-02-06T06:51:15.445Z,100599.73
2019-02-06T06:54:14.044Z,100599.19
2019-02-06T06:56:31.360Z,100599.19
2019-02-06T06:59:19.564Z,100599.58
2019-02-06T07:01:47.191Z,100588.99
2019-02-06T07:04:36.320Z,100589.83
2019-02-06T07:07:22.784Z,100599.78
2019-02-06T07:10:12.097Z,100597.63
2019-02-06T07:12:38.651Z,100597.63
2019-02-06T07:15:25.152Z,100603.00
2019-02-06T07:20:51.974Z,100602.11
2019-02-06T07:23:19.712Z,100601.09
2019-02-06T07:26:06.200Z,100601.09
2019-02-06T07:28:52.644Z,100601.56
2019-02-06T07:31:39.180Z,100589.45
2019-02-06T07:34:07.027Z,100589.45
2019-02-06T07:36:53.569Z,100588.33
2019-02-06T07:39:21.237Z,100590.64
2019-02-06T07:42:07.761Z,100589.03
2019-02-06T07:44:54.238Z,100590.75
2019-02-06T07:47:40.730Z,100590.75
2019-02-06T07:50:27.224Z,100592.38
2019-02-06T07:53:15.751Z,100592.38
2019-02-06T07:56:02.213Z,100592.61
2019-02-06T07:58:50.878Z,100585.65
2019-02-06T08:04:11.251Z,100576.80
2019-02-06T08:09:30.849Z,100579.55
2019-02-06T08:11:58.549Z,100580.58
2019-02-06T08:14:46.745Z,100585.87
2019-02-06T08:17:16.268Z,100584.98
2019-02-06T08:20:02.767Z,100585.41
2019-02-06T08:22:30.393Z,100592.49
2019-02-06T08:25:18.539Z,100592.49
2019-02-06T08:27:46.298Z,100582.44
2019-02-06T08:30:34.817Z,100583.87
2019-02-06T08:33:02.732Z,100584.69
2019-02-06T08:35:50.900Z,100584.69
2019-02-06T08:38:18.754Z,100583.45
2019-02-06T08:41:05.195Z,100581.89
2019-02-06T08:43:33.168Z,100587.33
2019-02-06T08:46:19.697Z,100587.78
2019-02-06T08:48:49.278Z,100576.10
2019-02-06T08:51:17.178Z,100574.16
2019-02-06T08:54:03.718Z,100574.16
2019-02-06T08:57:02.308Z,100565.77
2019-02-06T08:59:38.322Z,100565.77
2019-02-06T09:02:20.066Z,100558.30
2019-02-06T09:05:07.657Z,100562.26
2019-02-06T09:07:23.641Z,100562.26
2019-02-06T09:10:22.007Z,100558.70
2019-02-06T09:15:46.394Z,100558.36
2019-02-06T09:18:14.287Z,100563.09
2019-02-06T09:21:00.816Z,100563.09
2019-02-06T09:23:47.286Z,100582.37
2019-02-06T09:26:36.193Z,100582.37
2019-02-06T09:29:03.328Z,100576.77
2019-02-06T09:31:51.476Z,100579.85
2019-02-06T09:34:37.972Z,100580.35
2019-02-06T09:37:24.467Z,100580.35
2019-02-06T09:39:52.336Z,100584.00
2019-02-06T09:42:40.402Z,100576.49
2019-02-06T09:48:00.264Z,100575.80
2019-02-06T09:50:28.044Z,100576.03
2019-02-06T09:53:16.193Z,100569.23
2019-02-06T09:56:02.656Z,100571.73
2019-02-06T09:58:49.142Z,100571.73
2019-02-06T10:01:16.904Z,100574.68
2019-02-06T10:04:06.010Z,100577.45
2019-02-06T10:06:54.511Z,100577.45
2019-02-06T10:09:42.318Z,100578.52
2019-02-06T10:12:28.777Z,100582.08
2019-02-06T10:15:15.314Z,100582.50
2019-02-06T10:18:02.021Z,100586.52
2019-02-06T10:20:50.154Z,100583.90
2019-02-06T10:23:36.689Z,100590.29
2019-02-06T10:26:24.766Z,100590.29
2019-02-06T10:28:52.710Z,100588.73
2019-02-06T10:31:20.841Z,100584.34
2019-02-06T10:33:48.448Z,100582.78
2019-02-06T10:36:16.332Z,100580.13
2019-02-06T10:38:46.327Z,100576.13
2019-02-06T10:41:25.333Z,100563.81
2019-02-06T10:43:50.740Z,100563.81
2019-02-06T10:46:21.473Z,100559.23
2019-02-06T10:48:49.176Z,100559.23
2019-02-06T10:51:22.231Z,100557.56
2019-02-06T10:53:49.130Z,100557.56
2019-02-06T10:56:17.085Z,100547.74
2019-02-06T10:58:45.338Z,100542.20
2019-02-06T11:01:13.077Z,100542.20
2019-02-06T11:03:40.882Z,100538.42
2019-02-06T11:06:08.830Z,100539.55
2019-02-06T11:08:37.255Z,100530.84
2019-02-06T11:11:05.191Z,100530.84
2019-02-06T11:13:33.374Z,100536.17
2019-02-06T11:16:02.749Z,100536.17
2019-02-06T11:18:30.447Z,100531.73
2019-02-06T11:21:01.525Z,100530.39
2019-02-06T11:23:31.954Z,100530.39
2019-02-06T11:25:59.670Z,100519.77
2019-02-06T11:28:27.628Z,100510.42
2019-02-06T11:30:57.086Z,100512.88
2019-02-06T11:33:24.631Z,100512.27
2019-02-06T11:35:52.675Z,100512.27
2019-02-06T11:38:20.378Z,100508.56
2019-02-06T11:40:48.017Z,100508.56
2019-02-06T11:43:16.067Z,100508.25
2019-02-06T11:45:43.697Z,100504.71
2019-02-06T11:48:13.543Z,100508.94
2019-02-06T11:50:47.040Z,100492.21
2019-02-06T11:53:14.687Z,100488.09
2019-02-06T11:55:42.407Z,100487.92
2019-02-06T11:58:10.432Z,100487.92
2019-02-06T12:00:48.331Z,100485.00
2019-02-06T12:03:15.663Z,100478.88
2019-02-06T12:05:46.568Z,100484.70
2019-02-06T12:08:14.237Z,100484.70
2019-02-06T12:10:47.114Z,100484.42
2019-02-06T12:13:15.288Z,100484.05
2019-02-06T12:15:42.901Z,100485.11
2019-02-06T12:18:10.999Z,100473.50
2019-02-06T12:20:39.163Z,100471.48
2019-02-06T12:23:06.861Z,100471.48
2019-02-06T12:25:34.673Z,100466.34
2019-02-06T12:28:10.069Z,100465.52
2019-02-06T12:30:38.851Z,100469.45
2019-02-06T12:33:07.033Z,100445.12
2019-02-06T12:35:34.663Z,100442.95
2019-02-06T12:38:02.504Z,100437.68
2019-02-06T12:40:30.527Z,100436.90
2019-02-06T12:42:58.239Z,100436.90
2019-02-06T12:45:26.839Z,100435.73
2019-02-06T12:47:58.027Z,100435.73
2019-02-06T12:50:25.663Z,100431.41
2019-02-06T12:52:57.640Z,100438.56
2019-02-06T12:55:25.758Z,100438.56
2019-02-06T12:57:54.706Z,100422.52
2019-02-06T13:00:23.973Z,100422.52
2019-02-06T13:02:52.396Z,100424.17
2019-02-06T13:05:20.190Z,100411.91
2019-02-06T13:07:50.092Z,100406.47
2019-02-06T13:10:18.044Z,100394.62
2019-02-06T13:12:45.720Z,100394.62
2019-02-06T13:15:13.386Z,100394.77
2019-02-06T13:17:42.545Z,100389.41
2019-02-06T13:20:10.612Z,100389.41
2019-02-06T13:22:41.274Z,100386.89
2019-02-06T13:25:14.290Z,100384.17
2019-02-06T13:27:40.351Z,100391.27
2019-02-06T13:30:08.640Z,100387.45
2019-02-06T13:32:45.640Z,100402.74
2019-02-06T13:35:14.956Z,100402.74
2019-02-06T13:37:42.691Z,100390.50
2019-02-06T13:40:10.759Z,100392.06
2019-02-06T13:42:38.468Z,100383.44
2019-02-06T13:45:06.168Z,100380.70
2019-02-06T13:47:35.947Z,100380.70
2019-02-06T13:50:04.196Z,100378.50
2019-02-06T13:52:34.723Z,100382.22
2019-02-06T13:55:02.823Z,100384.60
2019-02-06T13:57:33.678Z,100383.03
2019-02-06T14:00:02.239Z,100384.60
2019-02-06T14:02:30.354Z,100377.13
2019-02-06T14:05:00.320Z,100373.33
2019-02-06T14:07:27.992Z,100365.11
2019-02-06T14:09:58.509Z,100359.62
2019-02-06T14:12:28.351Z,100356.31
2019-02-06T14:15:03.627Z,100362.37
2019-02-06T14:17:31.681Z,100362.37
2019-02-06T14:20:01.607Z,100364.23
2019-02-06T14:22:29.237Z,100359.28
2019-02-06T14:24:57.348Z,100351.63
2019-02-06T14:27:28.188Z,100353.33
2019-02-06T14:29:55.830Z,100353.33
2019-02-06T14:32:26.759Z,100345.22
2019-02-06T14:34:54.593Z,100351.77
2019-02-06T14:37:27.669Z,100342.42
2019-02-06T14:39:57.498Z,100336.70
2019-02-06T14:42:25.203Z,100336.70
2019-02-06T14:44:56.069Z,100328.03
2019-02-06T14:47:26.980Z,100321.86
2019-02-06T14:49:54.672Z,100323.55
2019-02-06T14:52:22.355Z,100316.53
2019-02-06T14:54:54.557Z,100319.69
2019-02-06T14:57:22.234Z,100305.39
2019-02-06T14:59:49.944Z,100305.39
2019-02-06T15:02:18.280Z,100312.83
2019-02-06T15:04:45.941Z,100304.67
2019-02-06T15:07:13.676Z,100301.09
2019-02-06T15:09:41.591Z,100300.00
2019-02-06T15:12:09.468Z,100293.12
2019-02-06T15:14:45.719Z,100285.61
2019-02-06T15:17:15.708Z,100285.61
2019-02-06T15:19:43.381Z,100282.62
2019-02-06T15:22:10.993Z,100291.10
2019-02-06T15:24:44.169Z,100284.81
2019-02-06T15:27:12.035Z,100284.81
2019-02-06T15:29:39.750Z,100278.58
2019-02-06T15:32:08.244Z,100273.49
2019-02-06T15:34:35.882Z,100274.48
2019-02-06T15:37:03.594Z,100274.48
2019-02-06T15:39:31.538Z,100274.70
2019-02-06T15:42:02.005Z,100284.67
2019-02-06T15:44:29.619Z,100284.67
2019-02-06T15:46:57.594Z,100274.52
2019-02-06T15:49:27.002Z,100267.42
2019-02-06T15:51:54.699Z,100260.87
2019-02-06T15:54:26.370Z,100256.52
2019-02-06T15:56:55.575Z,100250.35
2019-02-06T15:59:24.892Z,100248.06
2019-02-06T16:01:55.002Z,100248.06
2019-02-06T16:04:53.510Z,100250.35
2019-02-06T16:07:21.538Z,100249.39
2019-02-06T16:09:49.258Z,100243.98
2019-02-06T16:12:17.224Z,100243.98
2019-02-06T16:14:45.696Z,100247.97
2019-02-06T16:17:13.775Z,100245.22
2019-02-06T16:19:41.894Z,100229.39
2019-02-06T16:22:09.943Z,100229.39
2019-02-06T16:24:37.689Z,100227.41
2019-02-06T16:27:05.409Z,100226.41
2019-02-06T16:29:33.292Z,100226.41
2019-02-06T16:32:03.254Z,100215.14
2019-02-06T16:34:31.214Z,100219.44
2019-02-06T16:36:58.846Z,100217.92
2019-02-06T16:39:29.585Z,100215.58
2019-02-06T16:41:57.578Z,100209.53
2019-02-06T16:44:25.579Z,100212.49
2019-02-06T16:47:02.114Z,100214.98
2019-02-06T16:49:30.638Z,100214.98
2019-02-06T16:51:58.770Z,100205.55
2019-02-06T16:54:28.049Z,100207.62
2019-02-06T16:56:56.273Z,100199.28
2019-02-06T16:59:23.918Z,100199.28
2019-02-06T17:01:51.550Z,100197.50
2019-02-06T17:04:22.162Z,100198.83
2019-02-06T17:06:49.896Z,100196.17
2019-02-06T17:09:17.542Z,100203.57
2019-02-06T17:11:45.537Z,100201.88
2019-02-06T17:14:15.855Z,100204.44
2019-02-06T17:16:47.810Z,100201.78
2019-02-06T17:19:16.353Z,100186.98
2019-02-06T17:21:47.816Z,100187.34
2019-02-06T17:24:17.197Z,100191.33
2019-02-06T17:26:48.002Z,100195.52
2019-02-06T17:29:15.713Z,100195.52
2019-02-06T17:31:44.317Z,100197.22
2019-02-06T17:34:18.339Z,100200.83
2019-02-06T17:36:48.809Z,100193.18
2019-02-06T17:39:23.785Z,100202.25
2019-02-06T17:41:47.253Z,100202.25
2019-02-06T17:44:16.920Z,100192.09
2019-02-06T17:46:44.618Z,100193.05
2019-02-06T17:49:12.558Z,100193.05
2019-02-06T17:51:40.214Z,100178.37
2019-02-06T17:54:07.904Z,100178.37
2019-02-06T17:56:38.986Z,100178.09
2019-02-06T17:59:09.170Z,100176.02
2019-02-06T18:01:37.431Z,100176.02
2019-02-06T18:04:05.871Z,100176.61
2019-02-06T18:06:35.172Z,100176.61
2019-02-06T18:09:05.474Z,100182.00
2019-02-06T18:11:40.645Z,100171.11
2019-02-06T18:14:14.001Z,100171.11
2019-02-06T18:16:41.655Z,100172.00
2019-02-06T18:19:13.350Z,100173.05
2019-02-06T18:21:41.322Z,100173.05
2019-02-06T18:24:09.281Z,100179.30
2019-02-06T18:26:41.049Z,100173.44
2019-02-06T18:29:12.196Z,100177.05
2019-02-06T18:31:41.603Z,100181.02
2019-02-06T18:34:14.805Z,100170.80
2019-02-06T18:36:42.481Z,100179.12
2019-02-06T18:39:19.653Z,100167.19
2019-02-06T18:41:49.509Z,100171.28
2019-02-06T18:44:17.297Z,100171.38
2019-02-06T18:46:45.323Z,100164.09
2019-02-06T18:49:16.957Z,100167.20
2019-02-06T18:51:44.353Z,100167.20
2019-02-06T18:54:15.465Z,100166.37
2019-02-06T18:56:43.787Z,100158.23
2019-02-06T18:59:11.412Z,100158.23
2019-02-06T19:01:51.424Z,100153.32
2019-02-06T19:04:22.134Z,100153.32
2019-02-06T19:06:50.198Z,100143.39
2019-02-06T19:09:22.826Z,100135.06
2019-02-06T19:11:52.214Z,100135.06
2019-02-06T19:14:27.246Z,100143.52
2019-02-06T19:16:57.226Z,100136.22
2019-02-06T19:19:25.827Z,100138.87
2019-02-06T19:21:56.057Z,100137.54
2019-02-06T19:24:25.689Z,100137.54
2019-02-06T19:26:53.414Z,100127.77
2019-02-06T19:29:21.438Z,100133.56
2019-02-06T19:31:49.161Z,100119.81
2019-02-06T19:34:19.998Z,100119.81
2019-02-06T19:36:47.752Z,100111.41
2019-02-06T19:39:28.764Z,100115.30
2019-02-06T19:42:05.215Z,100109.03
2019-02-06T19:44:53.980Z,100092.92
2019-02-06T19:47:44.345Z,100092.92
2019-02-06T19:50:25.810Z,100093.66
2019-02-06T19:53:02.273Z,100094.03
2019-02-06T19:58:21.559Z,100095.27
2019-02-06T20:00:49.399Z,100095.27
2019-02-06T20:03:37.582Z,100096.95
2019-02-06T20:06:05.816Z,100087.89
2019-02-06T20:08:53.520Z,100083.70
2019-02-06T20:11:39.990Z,100083.70
2019-02-06T20:14:26.886Z,100090.70
2019-02-06T20:17:13.324Z,100074.23
2019-02-06T20:20:00.331Z,100074.23
2019-02-06T20:22:29.490Z,100073.75
2019-02-06T20:25:17.642Z,100068.44
2019-02-06T20:31:09.315Z,100063.05
2019-02-06T20:36:28.949Z,100050.53
2019-02-06T20:39:15.423Z,100046.19
2019-02-06T20:42:02.185Z,100046.19
2019-02-06T20:44:29.988Z,100045.23
2019-02-06T20:47:18.113Z,100041.25
2019-02-06T20:50:00.044Z,100048.25
2019-02-06T20:52:34.097Z,100044.27
2019-02-06T20:55:04.252Z,100033.30
2019-02-06T20:57:53.211Z,100033.30
2019-02-06T21:00:22.732Z,100032.47
2019-02-06T21:02:57.795Z,100034.26
2019-02-06T21:05:25.447Z,100034.26
2019-02-06T21:07:53.107Z,100031.97
2019-02-06T21:10:23.639Z,100028.00
2019-02-06T21:12:51.268Z,100024.02
2019-02-06T21:15:23.920Z,100021.64
2019-02-06T21:17:54.525Z,100014.43
2019-02-06T21:20:22.232Z,100014.43
2019-02-06T21:22:52.174Z,100013.69
2019-02-06T21:25:20.665Z,100013.69
2019-02-06T21:27:48.270Z,100012.00
2019-02-06T21:30:26.018Z,100003.95
2019-02-06T21:32:56.895Z,100004.31
2019-02-06T21:35:24.534Z,100000.44
2019-02-06T21:38:11.315Z,100000.44
2019-02-06T21:40:39.173Z,99996.55
2019-02-06T21:43:08.589Z,99989.19
2019-02-06T21:45:58.952Z,99996.87
2019-02-06T21:51:35.052Z,99985.90
2019-02-06T21:54:03.109Z,99985.90
2019-02-06T21:56:32.515Z,99991.78
2019-02-06T21:59:20.668Z,99982.60
2019-02-06T22:04:53.663Z,99995.48
2019-02-06T22:07:41.827Z,99982.45
2019-02-06T22:10:29.993Z,99983.88
2019-02-06T22:13:16.482Z,99983.88
2019-02-06T22:15:44.219Z,99978.20
2019-02-06T22:18:13.488Z,99976.98
2019-02-06T22:20:59.885Z,99975.28
2019-02-06T22:23:27.614Z,99975.28
2019-02-06T22:29:02.252Z,99966.47
2019-02-06T22:31:50.485Z,99963.45
2019-02-06T22:34:18.054Z,99956.95
2019-02-06T22:37:04.533Z,99944.06
2019-02-06T22:39:32.283Z,99946.72
2019-02-06T22:42:03.937Z,99946.72
2019-02-06T22:47:05.406Z,99949.46
2019-02-06T22:49:49.936Z,99949.46
2019-02-06T22:52:26.737Z,99947.27
2019-02-06T22:55:14.799Z,99948.59
2019-02-06T22:58:01.302Z,99948.59
2019-02-06T23:03:36.833Z,99931.13
2019-02-06T23:06:06.404Z,99931.13
2019-02-06T23:08:56.703Z,99923.27
2019-02-06T23:11:24.406Z,99911.94
2019-02-06T23:13:55.137Z,99911.94
2019-02-06T23:16:41.594Z,99910.25
2019-02-06T23:21:43.319Z,99908.33
2019-02-06T23:24:30.180Z,99899.42
2019-02-06T23:26:57.893Z,99895.91
2019-02-06T23:29:44.386Z,99895.91
2019-02-06T23:32:12.358Z,99897.73
2019-02-06T23:37:31.285Z,99886.00
2019-02-06T23:39:59.013Z,99886.00
2019-02-06T23:42:45.473Z,99870.23
2019-02-06T23:48:20.155Z,99858.99
2019-02-06T23:50:59.645Z,99858.99
2019-02-06T23:53:17.202Z,99852.00
2019-02-06T23:56:05.269Z,99847.26
2019-02-06T23:58:32.983Z,99849.08
